»·PEaware :: N21705 KCMA-KSNA

N21705 :: KCMA-KSNA

FLIGHT INFORMATION

Flight Status: Arrived
Operator: Privately registered:
United States
More flights under this callsign
Pilot: Anonymous 33140 (33140)
Aircraft: CESSNA 172 SKYHAWK
(C172)
More flights by this aircraft type
Origin: KCMA Camarillo
United States
Destination: KSNA John Wayne-Orange Co
United States
More flights between these airports :: More routes between these airports
Route: VNY LAX SNA
File this flight plan on PilotEdge
Remarks:
Altitude:
(Current/Filed)
5,500ft
Speed:
(Current/Filed)
110kts
Departed: 12-Jan-21 12:03 PM
Arrived: 12-Jan-21 12:54 PM
Distance/Time
Traveled:
69nm/0:51
Distance/Time
To Go:
Arrived

Flight Plot

Page will automatically refresh every two minutes.

Flight plan parsing failed; only flown route is shown


Map Options




Map Legend


Flown Route
Filed Route
Departure Airport
Arrival Airport
Navaid (VOR, NDB)
Fix

Horizontal Profiles

Position Reports

Time Latitude Longitude Heading Altitude Ground
Speed
12-Jan-21 11:49 34.210729 -119.095456 177 70ft 0kts
12-Jan-21 11:50 34.210729 -119.095456 177 70ft 0kts
12-Jan-21 11:51 34.210729 -119.095456 177 70ft 0kts
12-Jan-21 11:52 34.210729 -119.095456 177 70ft 0kts
12-Jan-21 11:53 34.210729 -119.095456 177 70ft 0kts
12-Jan-21 11:54 34.210729 -119.095456 177 70ft 0kts
12-Jan-21 11:55 34.210729 -119.095456 177 70ft 0kts
12-Jan-21 11:56 34.210729 -119.095456 177 70ft 0kts
12-Jan-21 11:57 34.211018 -119.094333 90 72ft 9kts
12-Jan-21 11:58 34.210980 -119.090295 90 76ft 18kts
12-Jan-21 12:00 34.211156 -119.084620 357 80ft 7kts
12-Jan-21 12:01 34.212704 -119.084616 0 78ft 0kts
12-Jan-21 12:02 34.212704 -119.084616 0 78ft 0kts
12-Jan-21 12:03 34.213691 -119.088409 270 75ft 61kts
12-Jan-21 12:04 34.213125 -119.113615 269 795ft 78kts
12-Jan-21 12:05 34.222643 -119.111250 86 1628ft 68kts
12-Jan-21 12:06 34.223623 -119.085715 81 2288ft 78kts
12-Jan-21 12:07 34.221272 -119.059929 108 3024ft 79kts
12-Jan-21 12:08 34.217274 -119.033777 93 3718ft 80kts
12-Jan-21 12:09 34.214935 -119.006862 93 4384ft 81kts
12-Jan-21 12:10 34.212732 -118.979590 93 5017ft 82kts
12-Jan-21 12:11 34.208373 -118.951442 99 5489ft 97kts
12-Jan-21 12:12 34.202897 -118.913872 98 5525ft 121kts
12-Jan-21 12:13 34.197176 -118.873864 96 5571ft 121kts
12-Jan-21 12:13 34.194888 -118.839818 95 5607ft 121kts
12-Jan-21 12:15 34.190817 -118.792252 90 5632ft 122kts
12-Jan-21 12:15 34.190178 -118.757912 89 5636ft 123kts
12-Jan-21 12:17 34.189513 -118.709757 88 5631ft 123kts
12-Jan-21 12:17 34.189697 -118.674976 88 5552ft 125kts
12-Jan-21 12:18 34.189173 -118.633588 88 5498ft 124kts
12-Jan-21 12:20 34.188498 -118.585066 89 5480ft 123kts
12-Jan-21 12:20 34.181709 -118.552771 154 5400ft 130kts
12-Jan-21 12:21 34.148656 -118.537317 157 5439ft 126kts
12-Jan-21 12:22 34.115306 -118.522146 159 5451ft 128kts
12-Jan-21 12:23 34.081779 -118.507498 158 5444ft 127kts
12-Jan-21 12:24 34.050088 -118.488797 152 5465ft 126kts
12-Jan-21 12:25 34.017774 -118.471450 154 5485ft 127kts
12-Jan-21 12:26 33.984787 -118.455480 159 5495ft 127kts
12-Jan-21 12:27 33.951164 -118.441210 159 5509ft 127kts
12-Jan-21 12:28 33.919470 -118.423068 125 5500ft 126kts
12-Jan-21 12:29 33.895398 -118.392123 136 5522ft 127kts
12-Jan-21 12:30 33.869478 -118.362929 134 5553ft 127kts
12-Jan-21 12:31 33.843749 -118.333562 134 5533ft 128kts
12-Jan-21 12:32 33.818045 -118.304136 134 5511ft 128kts
12-Jan-21 12:33 33.792277 -118.274806 138 5485ft 128kts
12-Jan-21 12:34 33.765484 -118.246612 136 5465ft 127kts
12-Jan-21 12:35 33.739200 -118.218061 136 5463ft 127kts
12-Jan-21 12:36 33.713100 -118.189258 128 5452ft 127kts
12-Jan-21 12:37 33.700689 -118.150571 102 5437ft 124kts
12-Jan-21 12:38 33.693926 -118.110044 97 5448ft 123kts
12-Jan-21 12:39 33.687906 -118.069410 97 5456ft 123kts
12-Jan-21 12:40 33.681968 -118.029038 97 5468ft 124kts
12-Jan-21 12:41 33.668151 -117.992212 145 5524ft 122kts
12-Jan-21 12:42 33.636925 -118.004293 232 5485ft 127kts
12-Jan-21 12:43 33.632524 -118.043812 284 5467ft 121kts
12-Jan-21 12:44 33.644168 -118.080672 324 5453ft 118kts
12-Jan-21 12:45 33.672458 -118.075865 64 5470ft 119kts
12-Jan-21 12:46 33.672053 -118.035129 90 4899ft 122kts
12-Jan-21 12:47 33.670539 -117.994540 88 4281ft 121kts
12-Jan-21 12:48 33.670188 -117.954365 87 3657ft 120kts
12-Jan-21 12:49 33.671286 -117.914413 91 2568ft 121kts
12-Jan-21 12:50 33.684108 -117.881673 39 1247ft 98kts
12-Jan-21 12:51 33.700653 -117.860873 98 919ft 85kts
12-Jan-21 12:52 33.679558 -117.866390 206 68ft 99kts
12-Jan-21 12:53 33.672451 -117.872112 314 55ft 0kts
12-Jan-21 12:54 33.672919 -117.872121 28 55ft 11kts
12-Jan-21 12:55 33.675257 -117.871685 274 52ft 0kts

Navigation Log

Ident Type
Flight plan parsing failed, navigation log unavailable